Time;durP1;ratioP1;P1;durP2;ratioP2;P2;SDS_P1;SDS_P2;PMS_P1;PMS_P2;Temp;Humidity;BMP_temperature;BMP_pressure;BME280_temperature;BME280_humidity;BME280_pressure;Samples;Min_cycle;Max_cycle;Signal;HPM_P1;HPM_P2
2023/06/01 04:53:08;;;;;;;;;;;;;;;;;;5055102;23;19948;-80
2023/06/01 04:55:34;;;;;;;;;;;;;;;;;;4997794;28;20267;-82
2023/06/01 04:57:59;;;;;;;;;;;;;;;;;;4997033;28;19949;-82
2023/06/01 05:00:25;;;;;;;;;;;;;;;;;;5012972;28;19933;-81
2023/06/01 05:02:50;;;;;;;;;;;;;;;;;;5009278;28;19937;-82
2023/06/01 05:05:16;;;;;;;;;;;;;;;;;;4995204;28;19926;-81
2023/06/01 05:07:44;;;;;;;;;;;;;;;;;;5000996;28;20004;-83
2023/06/01 05:10:11;;;;;;;;;;;;;;;;;;5007813;28;19932;-83
2023/06/01 05:12:36;;;;;;;;;;;;;;;;;;4992942;28;20279;-81
2023/06/01 05:15:04;;;;;;;;;;;;;;;;;;5002493;28;20016;-83
2023/06/01 05:17:29;;;;;;;;;;;;;;;;;;4998349;28;19925;-84
2023/06/01 05:19:56;;;;;;;;;;;;;;;;;;5001460;28;19937;-81
2023/06/01 05:22:22;;;;;;;;;;;;;;;;;;4993065;28;19929;-84
2023/06/01 05:24:47;;;;;;;;;;;;;;;;;;4993852;28;20400;-83
2023/06/01 05:27:12;;;;;;;;;;;;;;;;;;5004864;28;20003;-83
2023/06/01 05:29:38;;;;;;;;;;;;;;;;;;5013489;28;19921;-84
2023/06/01 05:32:03;;;;;;;;;;;;;;;;;;4998914;28;19976;-82
2023/06/01 05:34:28;;;;;;;;;;;;;;;;;;5011936;28;19921;-81
2023/06/01 05:36:53;;;;;;;;;;;;;;;;;;5013369;28;19932;-83
2023/06/01 05:39:19;;;;;;;;;;;;;;;;;;5013923;28;19980;-83
2023/06/01 05:41:44;;;;;;;;;;;;;;;;;;5002931;28;20317;-81
2023/06/01 05:44:09;;;;;;;;;;;;;;;;;;5002503;28;19925;-82
2023/06/01 05:46:35;;;;;;;;;;;;;;;;;;5013693;28;19925;-84
2023/06/01 05:49:00;;;;;;;;;;;;;;;;;;4995525;28;19956;-83
2023/06/01 05:51:25;;;;;;;;;;;;;;;;;;4992637;28;19933;-82
2023/06/01 05:53:50;;;;;;;;;;;;;;;;;;4993740;28;20501;-82
2023/06/01 05:56:16;;;;;;;;;;;;;;;;;;4992470;28;19929;-82
2023/06/01 05:58:42;;;;;;;;;;;;;;;;;;4993037;28;19926;-83
2023/06/01 06:01:07;;;;;;;;;;;;;;;;;;4999515;28;20484;-81
2023/06/01 06:03:33;;;;;;;;;;;;;;;;;;5012346;28;20412;-81
2023/06/01 06:05:58;;;;;;;;;;;;;;;;;;5012193;28;19929;-82
2023/06/01 06:08:23;;;;;;;;;;;;;;;;;;5011882;28;19930;-81
2023/06/01 06:10:49;;;;;;;;;;;;;;;;;;5012446;28;19925;-81
2023/06/01 06:13:14;;;;;;;;;;;;;;;;;;5011526;28;19921;-78
2023/06/01 06:15:39;;;;;;;;;;;;;;;;;;5002834;28;19961;-79
2023/06/01 06:18:05;;;;;;;;;;;;;;;;;;4993055;28;19933;-78
2023/06/01 06:20:30;;;;;;;;;;;;;;;;;;5001589;28;19925;-79
2023/06/01 06:22:56;;;;;;;;;;;;;;;;;;4991906;28;20386;-79
2023/06/01 06:25:21;;;;;;;;;;;;;;;;;;4991494;28;19953;-81
2023/06/01 06:27:47;;;;;;;;;;;;;;;;;;4992502;28;20005;-80
2023/06/01 06:30:12;;;;;;;;;;;;;;;;;;4996479;28;19969;-80
2023/06/01 06:32:38;;;;;;;;;;;;;;;;;;5011658;28;19933;-81
2023/06/01 06:35:03;;;;;;;;;;;;;;;;;;4994172;28;19925;-78
2023/06/01 06:37:30;;;;;;;;;;;;;;;;;;5011172;28;19948;-78
2023/06/01 06:39:55;;;;;;;;;;;;;;;;;;5011652;28;20348;-78
2023/06/01 06:42:20;;;;;;;;;;;;;;;;;;5010918;28;19929;-78
2023/06/01 06:44:45;;;;;;;;;;;;;;;;;;5011664;28;20365;-78
2023/06/01 06:47:15;;;;;;;;;;;;;;;;;;5010860;28;19940;-79
2023/06/01 06:49:40;;;;;;;;;;;;;;;;;;5011464;28;19925;-78
2023/06/01 06:52:06;;;;;;;;;;;;;;;;;;5011264;28;19932;-78
2023/06/01 06:54:31;;;;;;;;;;;;;;;;;;5011477;28;19934;-78
2023/06/01 06:56:56;;;;;;;;;;;;;;;;;;5011327;28;19948;-78
2023/06/01 06:59:21;;;;;;;;;;;;;;;;;;5011178;28;19926;-78
2023/06/01 07:01:47;;;;;;;;;;;;;;;;;;4993235;28;19932;-79
2023/06/01 07:04:12;;;;;;;;;;;;;;;;;;5010859;28;20377;-79
2023/06/01 07:06:38;;;;;;;;;;;;;;;;;;5011719;28;19932;-82
2023/06/01 07:09:05;;;;;;;;;;;;;;;;;;4993287;28;19960;-83
2023/06/01 07:11:30;;;;;;;;;;;;;;;;;;4993663;28;19926;-84
2023/06/01 07:13:57;;;;;;;;;;;;;;;;;;5011096;28;19983;-83
2023/06/01 07:16:23;;;;;;;;;;;;;;;;;;5010566;28;19929;-84
2023/06/01 07:18:48;;;;;;;;;;;;;;;;;;5011717;28;19926;-83
2023/06/01 07:21:13;;;;;;;;;;;;;;;;;;5008156;28;20045;-84
2023/06/01 07:23:41;;;;;;;;;;;;;;;;;;5010836;28;19930;-84
2023/06/01 07:26:06;;;;;;;;;;;;;;;;;;5010769;28;19933;-84
2023/06/01 07:28:32;;;;;;;;;;;;;;;;;;4993747;28;20337;-84
2023/06/01 07:30:58;;;;;;;;;;;;;;;;;;5010520;28;19935;-83
2023/06/01 07:33:25;;;;;;;;;;;;;;;;;;5010618;28;20016;-83
2023/06/01 07:35:52;;;;;;;;;;;;;;;;;;5011307;28;19968;-83
2023/06/01 07:38:18;;;;;;;;;;;;;;;;;;5014576;28;19948;-83
2023/06/01 07:40:43;;;;;;;;;;;;;;;;;;5015077;28;19925;-83
2023/06/01 07:43:08;;;;;;;;;;;;;;;;;;5003133;28;20432;-84
2023/06/01 07:45:34;;;;;;;;;;;;;;;;;;4997147;28;20396;-83
2023/06/01 07:48:00;;;;;;;;;;;;;;;;;;5014535;28;19933;-82
2023/06/01 07:50:30;;;;;;;;;;;;;;;;;;5014404;28;19932;-84
2023/06/01 07:52:56;;;;;;;;;;;;;;;;;;5014720;28;19926;-84
2023/06/01 07:55:21;;;;;;;;;;;;;;;;;;5013500;28;20297;-84
2023/06/01 07:57:46;;;;;;;;;;;;;;;;;;5014408;28;20027;-83
2023/06/01 08:00:12;;;;;;;;;;;;;;;;;;5012009;28;19930;-83
2023/06/01 08:02:37;;;;;;;;;;;;;;;;;;5009244;28;19929;-83
2023/06/01 08:05:03;;;;;;;;;;;;;;;;;;5013975;28;19932;-83
2023/06/01 08:07:29;;;;;;;;;;;;;;;;;;5013882;28;19929;-83
2023/06/01 08:09:55;;;;;;;;;;;;;;;;;;5014100;28;19964;-83
2023/06/01 08:12:21;;;;;;;;;;;;;;;;;;5013201;28;20088;-83
2023/06/01 08:14:47;;;;;;;;;;;;;;;;;;5014083;28;19929;-82
2023/06/01 08:17:13;;;;;;;;;;;;;;;;;;5013601;28;20317;-84
2023/06/01 08:19:40;;;;;;;;;;;;;;;;;;5014396;28;19957;-82
2023/06/01 08:22:05;;;;;;;;;;;;;;;;;;5013616;28;19922;-82
2023/06/01 08:24:32;;;;;;;;;;;;;;;;;;5013888;28;20633;-83
2023/06/01 08:26:57;;;;;;;;;;;;;;;;;;5014062;28;19961;-84
2023/06/01 08:29:22;;;;;;;;;;;;;;;;;;5004615;28;25915;-86
2023/06/01 08:31:48;;;;;;;;;;;;;;;;;;5011136;28;20020;-84
2023/06/01 08:34:13;;;;;;;;;;;;;;;;;;5012239;28;19925;-83
2023/06/01 08:36:38;;;;;;;;;;;;;;;;;;5014285;28;19936;-84
2023/06/01 08:39:19;;;;;;;;;;;;;;;;;;5013915;28;19964;-85
2023/06/01 08:41:49;;;;;;;;;;;;;;;;;;5013131;28;19926;-83
2023/06/01 08:44:17;;;;;;;;;;;;;;;;;;5013200;28;19995;-84
2023/06/01 08:46:42;;;;;;;;;;;;;;;;;;5013616;28;19926;-83
2023/06/01 08:49:10;;;;;;;;;;;;;;;;;;5013136;28;19988;-84
2023/06/01 08:51:37;;;;;;;;;;;;;;;;;;5013821;28;19926;-84
2023/06/01 08:54:03;;;;;;;;;;;;;;;;;;5013732;28;19972;-83
2023/06/01 08:56:29;;;;;;;;;;;;;;;;;;5012853;28;19968;-85
2023/06/01 08:58:55;;;;;;;;;;;;;;;;;;5013271;28;19949;-84
2023/06/01 09:01:21;;;;;;;;;;;;;;;;;;5003677;28;20322;-86
2023/06/01 09:03:47;;;;;;;;;;;;;;;;;;4993625;28;19925;-85
2023/06/01 09:06:12;;;;;;;;;;;;;;;;;;4993388;28;20401;-84
2023/06/01 09:08:38;;;;;;;;;;;;;;;;;;5007046;28;20032;-85
2023/06/01 09:11:03;;;;;;;;;;;;;;;;;;5012557;28;19933;-81
2023/06/01 09:13:38;;;;;;;;;;;;;;;;;;4995744;28;19953;-83
2023/06/01 09:16:03;;;;;;;;;;;;;;;;;;5013087;28;19925;-82
2023/06/01 09:18:29;;;;;;;;;;;;;;;;;;5013198;28;20109;-83
2023/06/01 09:20:56;;;;;;;;;;;;;;;;;;5013163;28;20392;-83
2023/06/01 09:23:31;;;;;;;;;;;;;;;;;;5012451;28;19930;-85
2023/06/01 09:26:06;;;;;;;;;;;;;;;;;;5013323;28;19932;-85
2023/06/01 09:28:51;;;;;;;;;;;;;;;;;;5012592;28;19929;-84
2023/06/01 09:31:35;;;;;;;;;;;;;;;;;;5012162;28;20003;-85
2023/06/01 09:34:04;;;;;;;;;;;;;;;;;;4993093;28;20024;-84
2023/06/01 09:36:29;;;;;;;;;;;;;;;;;;4993067;28;19933;-84
2023/06/01 09:39:01;;;;;;;;;;;;;;;;;;5011460;28;19929;-83
2023/06/01 09:41:26;;;;;;;;;;;;;;;;;;5012190;28;20016;-84
2023/06/01 09:43:52;;;;;;;;;;;;;;;;;;5012206;28;20365;-84
2023/06/01 09:46:17;;;;;;;;;;;;;;;;;;5012456;28;19926;-84
2023/06/01 09:48:44;;;;;;;;;;;;;;;;;;5012595;28;19992;-85
2023/06/01 09:51:22;;;;;;;;;;;;;;;;;;5005674;28;19925;-83
2023/06/01 09:53:48;;;;;;;;;;;;;;;;;;5012309;28;19925;-86
2023/06/01 09:56:13;;;;;;;;;;;;;;;;;;5011519;28;19933;-85
2023/06/01 09:58:40;;;;;;;;;;;;;;;;;;5011995;28;19936;-84
2023/06/01 10:01:08;;;;;;;;;;;;;;;;;;5010270;28;20082;-86
2023/06/01 10:03:35;;;;;;;;;;;;;;;;;;5011998;28;20052;-82
2023/06/01 10:06:02;;;;;;;;;;;;;;;;;;5011222;28;20016;-82
2023/06/01 10:08:27;;;;;;;;;;;;;;;;;;5003148;28;19936;-82
2023/06/01 10:10:53;;;;;;;;;;;;;;;;;;5004693;28;19925;-83
2023/06/01 10:13:22;;;;;;;;;;;;;;;;;;5005169;28;19929;-84
2023/06/01 10:15:47;;;;;;;;;;;;;;;;;;5005169;28;19937;-84
2023/06/01 10:18:13;;;;;;;;;;;;;;;;;;5004342;28;19929;-84
2023/06/01 10:20:39;;;;;;;;;;;;;;;;;;5004815;28;19933;-83
2023/06/01 10:23:05;;;;;;;;;;;;;;;;;;5000905;28;19973;-81
2023/06/01 10:25:33;;;;;;;;;;;;;;;;;;5004911;28;19936;-84
2023/06/01 10:28:01;;;;;;;;;;;;;;;;;;5004974;28;19937;-83
2023/06/01 10:30:27;;;;;;;;;;;;;;;;;;5004230;28;20035;-83
2023/06/01 10:32:54;;;;;;;;;;;;;;;;;;5003498;28;19960;-82
2023/06/01 10:35:32;;;;;;;;;;;;;;;;;;4998645;28;19933;-82
2023/06/01 10:38:06;;;;;;;;;;;;;;;;;;5004814;28;19930;-82
2023/06/01 10:40:34;;;;;;;;;;;;;;;;;;4993232;28;19992;-83
2023/06/01 10:43:00;;;;;;;;;;;;;;;;;;5006706;28;19949;-80
2023/06/01 10:45:40;;;;;;;;;;;;;;;;;;5010305;28;20523;-80
2023/06/01 10:48:10;;;;;;;;;;;;;;;;;;5010910;28;19926;-81
2023/06/01 10:50:36;;;;;;;;;;;;;;;;;;5011968;28;19929;-81
2023/06/01 10:53:20;;;;;;;;;;;;;;;;;;5011385;28;20304;-81
2023/06/01 10:55:45;;;;;;;;;;;;;;;;;;5010937;28;19988;-81
2023/06/01 10:58:21;;;;;;;;;;;;;;;;;;5011360;28;19933;-82
2023/06/01 11:00:47;;;;;;;;;;;;;;;;;;4989247;28;20409;-80
2023/06/01 11:03:12;;;;;;;;;;;;;;;;;;4991267;28;19933;-81
2023/06/01 11:05:39;;;;;;;;;;;;;;;;;;4974324;28;20378;-80
2023/06/01 11:08:05;;;;;;;;;;;;;;;;;;4993988;28;19995;-79
2023/06/01 11:10:49;;;;;;;;;;;;;;;;;;5011151;28;20024;-80
2023/06/01 11:13:21;;;;;;;;;;;;;;;;;;5014683;28;20412;-81
2023/06/01 11:16:21;;;;;;;;;;;;;;;;;;5015676;28;19930;-81
2023/06/01 11:18:49;;;;;;;;;;;;;;;;;;4994404;28;19926;-81
2023/06/01 11:21:24;;;;;;;;;;;;;;;;;;5014910;28;19971;-80
2023/06/01 11:23:49;;;;;;;;;;;;;;;;;;5014906;28;19925;-82
2023/06/01 11:26:15;;;;;;;;;;;;;;;;;;5015029;28;19932;-81
2023/06/01 11:28:41;;;;;;;;;;;;;;;;;;5015456;28;19926;-82
2023/06/01 11:31:08;;;;;;;;;;;;;;;;;;5014340;28;19926;-80
2023/06/01 11:33:35;;;;;;;;;;;;;;;;;;5015174;28;19926;-80
2023/06/01 11:36:04;;;;;;;;;;;;;;;;;;5015077;28;19925;-82
2023/06/01 11:38:36;;;;;;;;;;;;;;;;;;5014452;28;20418;-81
2023/06/01 11:41:02;;;;;;;;;;;;;;;;;;5014952;28;20128;-82
2023/06/01 11:43:28;;;;;;;;;;;;;;;;;;5014570;28;20334;-80
2023/06/01 11:46:06;;;;;;;;;;;;;;;;;;5014715;28;19926;-81
2023/06/01 11:48:32;;;;;;;;;;;;;;;;;;5014541;28;20466;-81
2023/06/01 11:51:00;;;;;;;;;;;;;;;;;;5014567;28;19937;-80
2023/06/01 11:53:25;;;;;;;;;;;;;;;;;;5014026;28;19926;-81
2023/06/01 11:55:54;;;;;;;;;;;;;;;;;;5014613;28;20040;-80
2023/06/01 11:58:24;;;;;;;;;;;;;;;;;;5014213;28;19997;-82
2023/06/01 12:00:49;;;;;;;;;;;;;;;;;;5009783;28;19926;-82
2023/06/01 12:03:16;;;;;;;;;;;;;;;;;;4995395;28;19930;-81
2023/06/01 12:05:48;;;;;;;;;;;;;;;;;;4995873;28;19929;-81
2023/06/01 12:08:24;;;;;;;;;;;;;;;;;;4997851;28;20318;-82
2023/06/01 12:10:53;;;;;;;;;;;;;;;;;;4998726;28;19957;-81
2023/06/01 12:13:18;;;;;;;;;;;;;;;;;;4996907;28;19963;-81
2023/06/01 12:15:44;;;;;;;;;;;;;;;;;;4997345;28;19965;-81
2023/06/01 12:18:10;;;;;;;;;;;;;;;;;;5012285;28;19957;-81
2023/06/01 12:20:41;;;;;;;;;;;;;;;;;;5014200;28;20429;-81
2023/06/01 12:23:09;;;;;;;;;;;;;;;;;;5013471;28;20020;-81
2023/06/01 12:25:34;;;;;;;;;;;;;;;;;;5014469;28;19980;-81
2023/06/01 12:28:04;;;;;;;;;;;;;;;;;;5014166;28;20325;-80
2023/06/01 12:30:30;;;;;;;;;;;;;;;;;;5013433;28;20353;-81
2023/06/01 12:32:55;;;;;;;;;;;;;;;;;;5014138;28;19925;-80
2023/06/01 12:35:23;;;;;;;;;;;;;;;;;;5013115;28;19932;-80
2023/06/01 12:38:08;;;;;;;;;;;;;;;;;;5013760;28;19980;-81
2023/06/01 12:40:35;;;;;;;;;;;;;;;;;;5013426;28;19949;-81
2023/06/01 12:43:00;;;;;;;;;;;;;;;;;;5013888;28;19929;-81
2023/06/01 12:45:34;;;;;;;;;;;;;;;;;;5013336;28;20386;-82
2023/06/01 12:47:59;;;;;;;;;;;;;;;;;;5014095;28;19932;-81
2023/06/01 12:50:24;;;;;;;;;;;;;;;;;;5012687;28;20325;-78
2023/06/01 12:52:49;;;;;;;;;;;;;;;;;;5013413;28;19925;-77
2023/06/01 12:55:15;;;;;;;;;;;;;;;;;;5012987;28;19932;-77
2023/06/01 12:57:40;;;;;;;;;;;;;;;;;;5013775;28;20007;-78
2023/06/01 13:00:08;;;;;;;;;;;;;;;;;;5013308;28;19925;-78
2023/06/01 13:02:34;;;;;;;;;;;;;;;;;;4994041;28;20460;-77
2023/06/01 13:04:59;;;;;;;;;;;;;;;;;;4993652;28;20410;-77
2023/06/01 13:07:25;;;;;;;;;;;;;;;;;;4975786;28;19932;-77
2023/06/01 13:09:51;;;;;;;;;;;;;;;;;;4993654;28;20279;-77
2023/06/01 13:12:17;;;;;;;;;;;;;;;;;;4992906;28;19933;-81
2023/06/01 13:14:42;;;;;;;;;;;;;;;;;;4993779;28;19969;-81
2023/06/01 13:17:07;;;;;;;;;;;;;;;;;;4992920;28;19987;-81
2023/06/01 13:19:33;;;;;;;;;;;;;;;;;;4993514;28;20008;-83
2023/06/01 13:21:58;;;;;;;;;;;;;;;;;;4993453;28;19925;-81
2023/06/01 13:24:23;;;;;;;;;;;;;;;;;;4992833;28;20374;-81
2023/06/01 13:26:49;;;;;;;;;;;;;;;;;;4994054;28;20398;-81
2023/06/01 13:29:14;;;;;;;;;;;;;;;;;;4992872;28;19964;-79
2023/06/01 13:31:40;;;;;;;;;;;;;;;;;;4994800;28;19934;-81
2023/06/01 13:34:05;;;;;;;;;;;;;;;;;;5011340;28;19926;-79
2023/06/01 13:36:30;;;;;;;;;;;;;;;;;;5012782;28;19948;-81
2023/06/01 13:38:56;;;;;;;;;;;;;;;;;;5012638;28;20383;-81
2023/06/01 13:41:21;;;;;;;;;;;;;;;;;;5012181;28;19929;-81
2023/06/01 13:43:47;;;;;;;;;;;;;;;;;;5012831;28;19931;-81
2023/06/01 13:46:12;;;;;;;;;;;;;;;;;;5011927;28;19925;-80
2023/06/01 13:48:37;;;;;;;;;;;;;;;;;;5012484;28;19958;-81
2023/06/01 13:51:03;;;;;;;;;;;;;;;;;;5012211;28;19929;-81
2023/06/01 13:53:28;;;;;;;;;;;;;;;;;;4994680;28;19925;-80
2023/06/01 13:55:54;;;;;;;;;;;;;;;;;;5012547;28;19983;-83
2023/06/01 13:58:19;;;;;;;;;;;;;;;;;;5011783;28;19929;-81
2023/06/01 14:00:44;;;;;;;;;;;;;;;;;;5012379;28;19926;-81
2023/06/01 14:03:10;;;;;;;;;;;;;;;;;;5011342;28;19944;-80
2023/06/01 14:05:35;;;;;;;;;;;;;;;;;;5012330;28;19925;-81
2023/06/01 14:08:02;;;;;;;;;;;;;;;;;;5012221;28;19996;-81
2023/06/01 14:10:27;;;;;;;;;;;;;;;;;;5011525;28;19929;-81
2023/06/01 14:12:53;;;;;;;;;;;;;;;;;;5012540;28;19932;-81
2023/06/01 14:15:18;;;;;;;;;;;;;;;;;;5011717;28;19925;-81
2023/06/01 14:17:44;;;;;;;;;;;;;;;;;;5011896;28;20416;-81
2023/06/01 14:20:09;;;;;;;;;;;;;;;;;;5011814;28;19929;-81
2023/06/01 14:22:34;;;;;;;;;;;;;;;;;;5012219;28;19960;-82
2023/06/01 14:25:00;;;;;;;;;;;;;;;;;;5011764;28;19933;-82
2023/06/01 14:27:25;;;;;;;;;;;;;;;;;;5010602;28;19960;-81
2023/06/01 14:29:50;;;;;;;;;;;;;;;;;;5012188;28;20183;-80
2023/06/01 14:32:15;;;;;;;;;;;;;;;;;;5010986;28;20298;-80
2023/06/01 14:34:41;;;;;;;;;;;;;;;;;;5011868;28;20068;-81
2023/06/01 14:37:10;;;;;;;;;;;;;;;;;;5011192;28;20405;-80
2023/06/01 14:39:35;;;;;;;;;;;;;;;;;;5011828;28;20027;-82
2023/06/01 14:42:01;;;;;;;;;;;;;;;;;;5011819;28;20425;-81
2023/06/01 14:44:26;;;;;;;;;;;;;;;;;;5010947;28;19925;-82
2023/06/01 14:46:51;;;;;;;;;;;;;;;;;;5011488;28;19952;-82
2023/06/01 14:49:16;;;;;;;;;;;;;;;;;;5011290;28;20476;-83
2023/06/01 14:51:41;;;;;;;;;;;;;;;;;;5011410;28;20298;-82
2023/06/01 14:54:07;;;;;;;;;;;;;;;;;;5011055;28;20016;-82
2023/06/01 14:56:32;;;;;;;;;;;;;;;;;;5011326;28;19929;-83
2023/06/01 14:58:57;;;;;;;;;;;;;;;;;;5011815;28;20004;-81
2023/06/01 15:01:26;;;;;;;;;;;;;;;;;;5000269;28;19934;-82
2023/06/01 15:03:51;;;;;;;;;;;;;;;;;;5011328;28;19967;-82
2023/06/01 15:06:16;;;;;;;;;;;;;;;;;;5011423;28;19973;-81
2023/06/01 15:08:41;;;;;;;;;;;;;;;;;;5011611;28;19925;-80
2023/06/01 15:11:07;;;;;;;;;;;;;;;;;;5010822;28;19972;-81
2023/06/01 15:13:32;;;;;;;;;;;;;;;;;;5011209;28;20275;-80
2023/06/01 15:15:58;;;;;;;;;;;;;;;;;;5011501;28;19988;-78
2023/06/01 15:18:23;;;;;;;;;;;;;;;;;;5010742;28;19940;-80
2023/06/01 15:20:51;;;;;;;;;;;;;;;;;;5011764;28;19926;-80
2023/06/01 15:23:16;;;;;;;;;;;;;;;;;;5010547;28;20445;-80
2023/06/01 15:25:42;;;;;;;;;;;;;;;;;;5011444;28;20008;-81
2023/06/01 15:28:07;;;;;;;;;;;;;;;;;;5010866;28;19929;-81
2023/06/01 15:30:33;;;;;;;;;;;;;;;;;;4999581;28;19996;-79
2023/06/01 15:32:58;;;;;;;;;;;;;;;;;;5003378;28;19925;-81
2023/06/01 15:35:25;;;;;;;;;;;;;;;;;;4992242;28;19934;-81
2023/06/01 15:37:50;;;;;;;;;;;;;;;;;;5002419;28;20453;-80
2023/06/01 15:40:15;;;;;;;;;;;;;;;;;;5010357;28;20008;-80
2023/06/01 15:42:41;;;;;;;;;;;;;;;;;;5011098;28;19955;-80
2023/06/01 15:45:07;;;;;;;;;;;;;;;;;;5010427;28;19978;-80
2023/06/01 15:47:32;;;;;;;;;;;;;;;;;;5010999;28;19933;-82
2023/06/01 15:49:57;;;;;;;;;;;;;;;;;;5011222;28;20370;-80
2023/06/01 15:52:23;;;;;;;;;;;;;;;;;;4999685;28;19933;-81
2023/06/01 15:54:48;;;;;;;;;;;;;;;;;;4987620;28;20004;-81
2023/06/01 15:57:13;;;;;;;;;;;;;;;;;;5011718;28;20287;-80
2023/06/01 15:59:38;;;;;;;;;;;;;;;;;;5014037;28;19921;-82
2023/06/01 16:02:04;;;;;;;;;;;;;;;;;;5014003;28;19931;-81
2023/06/01 16:04:30;;;;;;;;;;;;;;;;;;5013666;28;19930;-82
2023/06/01 16:06:56;;;;;;;;;;;;;;;;;;5020796;28;19926;-82
2023/06/01 16:09:21;;;;;;;;;;;;;;;;;;5007198;28;19936;-82
2023/06/01 16:11:46;;;;;;;;;;;;;;;;;;5013486;28;19926;-82
2023/06/01 16:14:12;;;;;;;;;;;;;;;;;;5012461;28;19940;-82
2023/06/01 16:16:37;;;;;;;;;;;;;;;;;;5021246;28;19929;-85
2023/06/01 16:19:02;;;;;;;;;;;;;;;;;;5031947;28;19924;-84
2023/06/01 16:21:27;;;;;;;;;;;;;;;;;;5031463;28;19957;-84
2023/06/01 16:23:53;;;;;;;;;;;;;;;;;;5031537;28;20464;-81
2023/06/01 16:26:19;;;;;;;;;;;;;;;;;;5031553;28;19929;-83
2023/06/01 16:28:49;;;;;;;;;;;;;;;;;;5012919;28;19933;-86
2023/06/01 16:31:14;;;;;;;;;;;;;;;;;;5002949;28;19981;-88
2023/06/01 16:33:40;;;;;;;;;;;;;;;;;;5004738;28;19964;-83
2023/06/01 16:36:05;;;;;;;;;;;;;;;;;;5006162;28;19937;-82
2023/06/01 16:38:30;;;;;;;;;;;;;;;;;;5000805;28;19968;-84
2023/06/01 16:40:55;;;;;;;;;;;;;;;;;;4997453;28;20343;-81
2023/06/01 16:43:21;;;;;;;;;;;;;;;;;;4990166;28;19929;-81
2023/06/01 16:45:46;;;;;;;;;;;;;;;;;;5006102;28;20471;-81
2023/06/01 16:48:11;;;;;;;;;;;;;;;;;;5004472;28;19933;-82
2023/06/01 16:50:37;;;;;;;;;;;;;;;;;;5004379;28;19955;-82
2023/06/01 16:53:02;;;;;;;;;;;;;;;;;;4989098;28;19929;-83
2023/06/01 16:55:27;;;;;;;;;;;;;;;;;;4993016;28;19926;-83
2023/06/01 16:57:53;;;;;;;;;;;;;;;;;;5002179;28;19940;-82
2023/06/01 17:00:18;;;;;;;;;;;;;;;;;;5002908;28;20015;-83
2023/06/01 17:02:44;;;;;;;;;;;;;;;;;;5000099;28;19930;-82
2023/06/01 17:05:09;;;;;;;;;;;;;;;;;;5004853;28;20432;-83
2023/06/01 17:07:35;;;;;;;;;;;;;;;;;;4987182;28;19964;-83
2023/06/01 17:10:00;;;;;;;;;;;;;;;;;;4991483;28;19932;-83
2023/06/01 17:12:25;;;;;;;;;;;;;;;;;;5004279;28;19941;-83
2023/06/01 17:14:51;;;;;;;;;;;;;;;;;;4991281;28;19930;-82
2023/06/01 17:17:16;;;;;;;;;;;;;;;;;;4991847;28;19929;-83
2023/06/01 17:19:41;;;;;;;;;;;;;;;;;;4991343;28;20346;-82
2023/06/01 17:22:07;;;;;;;;;;;;;;;;;;5004601;28;19932;-83
2023/06/01 17:24:32;;;;;;;;;;;;;;;;;;4993194;28;20768;-85
2023/06/01 17:26:57;;;;;;;;;;;;;;;;;;5005771;28;19933;-83
2023/06/01 17:29:23;;;;;;;;;;;;;;;;;;5011197;28;20392;-83
2023/06/01 17:31:49;;;;;;;;;;;;;;;;;;5003061;28;19926;-82
2023/06/01 17:34:15;;;;;;;;;;;;;;;;;;5001655;28;20271;-81
2023/06/01 17:36:41;;;;;;;;;;;;;;;;;;4995202;28;19929;-81
2023/06/01 17:39:06;;;;;;;;;;;;;;;;;;5002260;28;19929;-84
2023/06/01 17:41:32;;;;;;;;;;;;;;;;;;5004335;28;19932;-81
2023/06/01 17:43:57;;;;;;;;;;;;;;;;;;5004689;28;19939;-82
2023/06/01 17:46:22;;;;;;;;;;;;;;;;;;4993640;28;19929;-82
2023/06/01 17:48:48;;;;;;;;;;;;;;;;;;5010914;28;19922;-81
2023/06/01 17:51:13;;;;;;;;;;;;;;;;;;5010856;28;19979;-82
2023/06/01 17:53:38;;;;;;;;;;;;;;;;;;5010453;28;19926;-81
2023/06/01 17:56:04;;;;;;;;;;;;;;;;;;5013177;28;19926;-81
2023/06/01 17:58:29;;;;;;;;;;;;;;;;;;5011963;28;20389;-81
2023/06/01 18:00:54;;;;;;;;;;;;;;;;;;5012030;28;20013;-81
2023/06/01 18:03:19;;;;;;;;;;;;;;;;;;5011405;28;20029;-82
2023/06/01 18:05:45;;;;;;;;;;;;;;;;;;5012331;28;20381;-84
2023/06/01 18:08:12;;;;;;;;;;;;;;;;;;4988300;28;20286;-81
2023/06/01 18:10:37;;;;;;;;;;;;;;;;;;5011453;28;19961;-81
2023/06/01 18:13:03;;;;;;;;;;;;;;;;;;5011112;28;19978;-82
2023/06/01 18:15:28;;;;;;;;;;;;;;;;;;4992161;28;20345;-83
2023/06/01 18:17:53;;;;;;;;;;;;;;;;;;5010944;28;20016;-83
2023/06/01 18:20:19;;;;;;;;;;;;;;;;;;5010745;28;19972;-82
2023/06/01 18:22:44;;;;;;;;;;;;;;;;;;5012109;28;19975;-83
2023/06/01 18:25:09;;;;;;;;;;;;;;;;;;5010699;28;19925;-83
2023/06/01 18:27:35;;;;;;;;;;;;;;;;;;5009968;28;19948;-86
2023/06/01 18:30:00;;;;;;;;;;;;;;;;;;4996365;28;19925;-83
2023/06/01 18:32:25;;;;;;;;;;;;;;;;;;4987913;28;19972;-83
2023/06/01 18:34:50;;;;;;;;;;;;;;;;;;4981192;28;19941;-83
2023/06/01 18:37:16;;;;;;;;;;;;;;;;;;4993974;28;20386;-83
2023/06/01 18:39:41;;;;;;;;;;;;;;;;;;5001793;28;19930;-82
2023/06/01 18:42:07;;;;;;;;;;;;;;;;;;5008072;28;19926;-82
2023/06/01 18:44:32;;;;;;;;;;;;;;;;;;5016847;28;20290;-81
2023/06/01 18:46:57;;;;;;;;;;;;;;;;;;5008621;28;19952;-84
2023/06/01 18:49:22;;;;;;;;;;;;;;;;;;5019500;28;19933;-83
2023/06/01 18:51:53;;;;;;;;;;;;;;;;;;5024027;28;19925;-84
2023/06/01 18:54:19;;;;;;;;;;;;;;;;;;5015856;28;19926;-84
2023/06/01 18:56:46;;;;;;;;;;;;;;;;;;5011522;28;20393;-84
2023/06/01 18:59:12;;;;;;;;;;;;;;;;;;5024757;28;19929;-84
2023/06/01 19:01:37;;;;;;;;;;;;;;;;;;5012690;28;20267;-83
2023/06/01 19:04:02;;;;;;;;;;;;;;;;;;5018646;28;19932;-82
2023/06/01 19:06:31;;;;;;;;;;;;;;;;;;5004775;28;19925;-84
2023/06/01 19:08:58;;;;;;;;;;;;;;;;;;5010906;28;19937;-85
2023/06/01 19:11:24;;;;;;;;;;;;;;;;;;5006344;28;19969;-85
2023/06/01 19:13:50;;;;;;;;;;;;;;;;;;5000467;28;19976;-85
2023/06/01 19:16:16;;;;;;;;;;;;;;;;;;5018522;28;19983;-84
2023/06/01 19:18:48;;;;;;;;;;;;;;;;;;5021192;28;19976;-84
2023/06/01 19:21:17;;;;;;;;;;;;;;;;;;5001670;28;20017;-87
2023/06/01 19:23:53;;;;;;;;;;;;;;;;;;4989212;28;19926;-86
2023/06/01 19:26:21;;;;;;;;;;;;;;;;;;5009908;28;20323;-84
2023/06/01 19:28:47;;;;;;;;;;;;;;;;;;5005064;28;20496;-84
2023/06/01 19:31:13;;;;;;;;;;;;;;;;;;4998068;28;19936;-83
2023/06/01 19:33:38;;;;;;;;;;;;;;;;;;4996086;28;19930;-84
2023/06/01 19:36:05;;;;;;;;;;;;;;;;;;5015596;28;20334;-82
2023/06/01 19:38:30;;;;;;;;;;;;;;;;;;5008250;28;20393;-85
2023/06/01 19:40:56;;;;;;;;;;;;;;;;;;5018191;28;19926;-83
2023/06/01 19:43:27;;;;;;;;;;;;;;;;;;5017756;28;19929;-83
2023/06/01 19:45:52;;;;;;;;;;;;;;;;;;5008602;28;19956;-84
2023/06/01 19:48:23;;;;;;;;;;;;;;;;;;5011869;28;19929;-83
2023/06/01 19:50:49;;;;;;;;;;;;;;;;;;5008582;28;19930;-83
2023/06/01 19:53:14;;;;;;;;;;;;;;;;;;5007762;28;19937;-84
2023/06/01 19:55:40;;;;;;;;;;;;;;;;;;5007834;28;20012;-82
2023/06/01 19:58:07;;;;;;;;;;;;;;;;;;5006565;28;19929;-83
2023/06/01 20:00:32;;;;;;;;;;;;;;;;;;5007033;28;19929;-85
2023/06/01 20:03:01;;;;;;;;;;;;;;;;;;5008177;28;19932;-86
2023/06/01 20:05:26;;;;;;;;;;;;;;;;;;5018216;28;19925;-88
2023/06/01 20:07:53;;;;;;;;;;;;;;;;;;5027898;28;19939;-88
2023/06/01 20:10:19;;;;;;;;;;;;;;;;;;5028758;28;19929;-87
2023/06/01 20:12:44;;;;;;;;;;;;;;;;;;5021665;28;19925;-86
2023/06/01 20:15:10;;;;;;;;;;;;;;;;;;5007668;28;19925;-83
2023/06/01 20:17:35;;;;;;;;;;;;;;;;;;5026953;28;19929;-85
2023/06/01 20:20:03;;;;;;;;;;;;;;;;;;5012247;28;19999;-85
2023/06/01 20:22:28;;;;;;;;;;;;;;;;;;4972434;28;19936;-86
2023/06/01 20:24:54;;;;;;;;;;;;;;;;;;4993370;28;19934;-84
2023/06/01 20:27:19;;;;;;;;;;;;;;;;;;4987095;28;20049;-82
2023/06/01 20:29:44;;;;;;;;;;;;;;;;;;4988988;28;19930;-82
2023/06/01 20:32:10;;;;;;;;;;;;;;;;;;4999236;28;19925;-84
2023/06/01 20:34:35;;;;;;;;;;;;;;;;;;5003757;28;20345;-86
2023/06/01 20:37:02;;;;;;;;;;;;;;;;;;5003085;28;20428;-89
2023/06/01 20:39:28;;;;;;;;;;;;;;;;;;5007514;28;19964;-84
2023/06/01 20:41:58;;;;;;;;;;;;;;;;;;5007334;28;20371;-83
2023/06/01 20:44:24;;;;;;;;;;;;;;;;;;5002270;28;19926;-83
2023/06/01 20:46:50;;;;;;;;;;;;;;;;;;5007127;28;19931;-83
2023/06/01 20:49:15;;;;;;;;;;;;;;;;;;5000127;28;20337;-87
2023/06/01 20:51:42;;;;;;;;;;;;;;;;;;4992947;28;20406;-90
2023/06/01 20:54:07;;;;;;;;;;;;;;;;;;5001690;28;19926;-84
2023/06/01 20:56:32;;;;;;;;;;;;;;;;;;5001342;28;19976;-88
2023/06/01 20:59:02;;;;;;;;;;;;;;;;;;4993962;28;20533;-89
2023/06/01 21:01:28;;;;;;;;;;;;;;;;;;4993325;28;19926;-89
2023/06/01 21:03:54;;;;;;;;;;;;;;;;;;4993709;28;19926;-88
2023/06/01 21:06:20;;;;;;;;;;;;;;;;;;4994267;28;20004;-87
2023/06/01 21:08:45;;;;;;;;;;;;;;;;;;4994148;28;19922;-88
2023/06/01 21:11:11;;;;;;;;;;;;;;;;;;5001075;28;20417;-89
2023/06/01 21:13:37;;;;;;;;;;;;;;;;;;4998742;28;19933;-87
2023/06/01 21:16:03;;;;;;;;;;;;;;;;;;4996174;28;19922;-87
2023/06/01 21:18:28;;;;;;;;;;;;;;;;;;5012980;28;19932;-88
2023/06/01 21:20:53;;;;;;;;;;;;;;;;;;4996331;28;19925;-87
2023/06/01 21:23:19;;;;;;;;;;;;;;;;;;5012668;28;20020;-88
2023/06/01 21:25:44;;;;;;;;;;;;;;;;;;5013074;28;19926;-87
2023/06/01 21:28:09;;;;;;;;;;;;;;;;;;5011045;28;20016;-87
2023/06/01 21:30:38;;;;;;;;;;;;;;;;;;5001368;28;20461;-87
2023/06/01 21:33:03;;;;;;;;;;;;;;;;;;5012664;28;19926;-87